createdAt,value
2018-05-27T00:00:54.309Z,21.61
2018-05-27T00:03:21.119Z,21.70
2018-05-27T00:05:47.600Z,21.74
2018-05-27T00:08:14.089Z,21.75
2018-05-27T00:10:40.724Z,21.77
2018-05-27T00:13:13.286Z,21.68
2018-05-27T00:15:39.788Z,21.64
2018-05-27T00:18:06.415Z,21.61
2018-05-27T00:20:32.942Z,21.62
2018-05-27T00:22:59.493Z,21.25
2018-05-27T00:25:26.149Z,21.39
2018-05-27T00:27:52.675Z,21.36
2018-05-27T00:30:19.236Z,21.41
2018-05-27T00:32:45.790Z,21.52
2018-05-27T00:35:12.560Z,21.50
2018-05-27T00:37:39.109Z,21.44
2018-05-27T00:40:05.996Z,20.89
2018-05-27T00:42:32.625Z,20.94
2018-05-27T00:44:59.382Z,21.06
2018-05-27T00:47:26.124Z,20.53
2018-05-27T00:49:52.760Z,20.74
2018-05-27T00:52:19.300Z,20.73
2018-05-27T00:54:45.777Z,20.71
2018-05-27T00:57:12.345Z,20.83
2018-05-27T00:59:38.805Z,20.92
2018-05-27T01:02:05.388Z,21.00
2018-05-27T01:04:32.129Z,21.10
2018-05-27T01:06:58.640Z,21.18
2018-05-27T01:09:25.416Z,21.23
2018-05-27T01:11:52.011Z,21.28
2018-05-27T01:14:18.518Z,21.27
2018-05-27T01:16:45.005Z,21.24
2018-05-27T01:19:11.705Z,21.17
2018-05-27T01:21:38.244Z,21.14
2018-05-27T01:24:04.957Z,21.15
2018-05-27T01:26:31.564Z,20.92
2018-05-27T01:28:58.152Z,20.99
2018-05-27T01:31:24.836Z,20.96
2018-05-27T01:33:51.461Z,20.86
2018-05-27T01:36:18.100Z,20.78
2018-05-27T01:38:44.813Z,20.06
2018-05-27T01:41:11.583Z,20.35
2018-05-27T01:43:38.284Z,20.36
2018-05-27T01:46:04.845Z,20.12
2018-05-27T01:50:57.704Z,20.51
2018-05-27T01:53:24.298Z,20.58
2018-05-27T01:55:50.924Z,20.63
2018-05-27T01:58:17.475Z,20.68
2018-05-27T02:00:44.104Z,20.72
2018-05-27T02:03:10.834Z,20.64
2018-05-27T02:05:37.579Z,20.31
2018-05-27T02:08:04.280Z,20.47
2018-05-27T02:10:30.913Z,20.59
2018-05-27T02:12:57.660Z,20.66
2018-05-27T02:15:24.232Z,20.68
2018-05-27T02:17:50.884Z,20.73
2018-05-27T02:20:17.540Z,20.71
2018-05-27T02:22:44.042Z,20.72
2018-05-27T02:25:10.551Z,20.78
2018-05-27T02:27:37.309Z,20.80
2018-05-27T02:30:03.932Z,20.82
2018-05-27T02:32:30.623Z,20.79
2018-05-27T02:34:57.251Z,20.81
2018-05-27T02:37:23.840Z,20.88
2018-05-27T02:39:50.401Z,20.78
2018-05-27T02:42:16.922Z,20.79
2018-05-27T02:44:43.866Z,20.81
2018-05-27T02:47:10.532Z,20.81
2018-05-27T02:49:37.223Z,20.82
2018-05-27T02:52:03.967Z,20.81
2018-05-27T02:54:30.664Z,20.77
2018-05-27T02:56:57.181Z,20.74
2018-05-27T02:59:23.706Z,20.62
2018-05-27T03:01:50.250Z,20.59
2018-05-27T03:04:16.933Z,20.51
2018-05-27T03:06:43.492Z,20.51
2018-05-27T03:09:10.077Z,20.44
2018-05-27T03:11:36.653Z,20.49
2018-05-27T03:14:03.247Z,20.55
2018-05-27T03:16:29.836Z,20.51
2018-05-27T03:18:56.471Z,20.45
2018-05-27T03:21:23.188Z,20.43
2018-05-27T03:23:49.919Z,20.45
2018-05-27T03:26:23.558Z,20.45
2018-05-27T03:28:50.161Z,20.46
2018-05-27T03:31:16.801Z,20.47
2018-05-27T03:33:43.394Z,20.47
2018-05-27T03:36:09.932Z,20.31
2018-05-27T03:38:36.543Z,20.32
2018-05-27T03:41:03.176Z,20.36
2018-05-27T03:43:29.931Z,20.33
2018-05-27T03:45:56.580Z,20.37
2018-05-27T03:48:23.292Z,20.36
2018-05-27T03:50:49.818Z,20.33
2018-05-27T03:53:16.318Z,20.33
2018-05-27T03:55:42.930Z,20.38
2018-05-27T03:58:09.628Z,20.43
2018-05-27T04:00:36.292Z,20.41
2018-05-27T04:03:02.947Z,20.38
2018-05-27T04:05:41.480Z,20.22
2018-05-27T04:08:20.187Z,20.30
2018-05-27T04:10:46.758Z,20.35
2018-05-27T04:13:13.494Z,20.34
2018-05-27T04:15:40.176Z,20.25
2018-05-27T04:18:06.849Z,20.18
2018-05-27T04:20:33.600Z,20.34
2018-05-27T04:23:00.209Z,20.39
2018-05-27T04:25:26.929Z,20.36
2018-05-27T04:27:53.557Z,20.37
2018-05-27T04:30:20.134Z,20.47
2018-05-27T04:32:46.688Z,20.53
2018-05-27T04:35:13.216Z,20.47
2018-05-27T04:37:39.692Z,20.56
2018-05-27T04:40:06.213Z,20.69
2018-05-27T04:42:32.716Z,20.74
2018-05-27T04:44:59.299Z,20.79
2018-05-27T04:47:25.841Z,20.66
2018-05-27T04:49:52.621Z,20.78
2018-05-27T04:52:19.271Z,20.87
2018-05-27T04:54:46.890Z,20.94
2018-05-27T04:57:13.965Z,21.10
2018-05-27T04:59:41.974Z,21.16
2018-05-27T05:02:08.497Z,21.33
2018-05-27T05:04:38.164Z,21.38
2018-05-27T05:07:05.450Z,21.50
2018-05-27T05:09:36.693Z,21.57
2018-05-27T05:12:03.444Z,21.57
2018-05-27T05:14:31.662Z,21.70
2018-05-27T05:16:58.193Z,21.88
2018-05-27T05:19:24.677Z,22.34
2018-05-27T05:21:51.143Z,22.65
2018-05-27T05:24:17.989Z,23.00
2018-05-27T05:26:44.571Z,23.44
2018-05-27T05:29:11.475Z,23.54
2018-05-27T05:31:37.963Z,23.88
2018-05-27T05:34:04.506Z,24.07
2018-05-27T05:36:31.022Z,24.14
2018-05-27T05:38:57.497Z,24.30
2018-05-27T05:41:24.027Z,24.50
2018-05-27T05:43:50.561Z,24.67
2018-05-27T05:46:17.149Z,24.81
2018-05-27T05:48:43.698Z,24.87
2018-05-27T05:51:10.203Z,24.24
2018-05-27T05:53:36.664Z,24.34
2018-05-27T05:56:03.235Z,24.55
2018-05-27T05:58:29.812Z,24.67
2018-05-27T06:00:56.572Z,24.48
2018-05-27T06:03:23.322Z,24.26
2018-05-27T06:05:50.036Z,24.39
2018-05-27T06:08:16.561Z,24.29
2018-05-27T06:10:48.232Z,24.22
2018-05-27T06:13:16.285Z,24.32
2018-05-27T06:15:57.366Z,24.29
2018-05-27T06:18:26.268Z,24.27
2018-05-27T06:21:01.174Z,24.39
2018-05-27T06:23:46.920Z,24.42
2018-05-27T06:29:33.334Z,24.42
2018-05-27T06:32:00.107Z,24.43
2018-05-27T06:34:29.401Z,24.48
2018-05-27T06:36:57.801Z,24.28
2018-05-27T06:39:24.537Z,24.52
2018-05-27T06:41:52.519Z,24.42
2018-05-27T06:44:19.006Z,24.39
2018-05-27T06:46:45.628Z,24.24
2018-05-27T06:49:12.261Z,24.24
2018-05-27T06:51:38.723Z,24.16
2018-05-27T06:54:05.241Z,24.15
2018-05-27T06:56:31.771Z,24.27
2018-05-27T06:58:58.636Z,24.33
2018-05-27T07:01:25.259Z,24.20
2018-05-27T07:03:51.912Z,23.95
2018-05-27T07:06:18.437Z,23.85
2018-05-27T07:08:44.947Z,23.77
2018-05-27T07:11:11.412Z,23.88
2018-05-27T07:13:37.916Z,24.07
2018-05-27T07:16:04.509Z,24.10
2018-05-27T07:18:31.960Z,24.07
2018-05-27T07:20:58.425Z,23.99
2018-05-27T07:23:24.984Z,23.79
2018-05-27T07:25:51.449Z,23.97
2018-05-27T07:28:18.057Z,24.17
2018-05-27T07:30:51.477Z,24.30
2018-05-27T07:33:18.016Z,24.24
2018-05-27T07:35:44.657Z,24.27
2018-05-27T07:38:11.236Z,24.22
2018-05-27T07:40:37.998Z,24.24
2018-05-27T07:43:04.585Z,24.44
2018-05-27T07:45:31.305Z,24.50
2018-05-27T07:47:57.824Z,24.71
2018-05-27T07:50:24.529Z,24.53
2018-05-27T07:52:51.081Z,24.52
2018-05-27T07:55:17.643Z,24.72
2018-05-27T07:57:44.086Z,24.86
2018-05-27T08:00:10.537Z,24.96
2018-05-27T08:02:37.154Z,24.91
2018-05-27T08:05:03.843Z,24.89
2018-05-27T08:07:30.433Z,24.75
2018-05-27T08:09:57.072Z,24.65
2018-05-27T08:12:23.532Z,24.80
2018-05-27T08:14:50.054Z,24.71
2018-05-27T08:17:16.817Z,24.61
2018-05-27T08:19:43.532Z,24.57
2018-05-27T08:22:10.184Z,24.61
2018-05-27T08:24:36.755Z,24.51
2018-05-27T08:27:03.200Z,24.53
2018-05-27T08:29:29.712Z,24.50
2018-05-27T08:31:56.320Z,24.60
2018-05-27T08:34:22.821Z,24.64
2018-05-27T08:36:49.357Z,24.39
2018-05-27T08:39:15.978Z,24.39
2018-05-27T08:41:42.556Z,24.51
2018-05-27T08:44:09.114Z,24.43
2018-05-27T08:46:35.640Z,24.37
2018-05-27T08:49:02.250Z,24.48
2018-05-27T08:51:28.660Z,24.51
2018-05-27T08:53:55.236Z,24.61
2018-05-27T08:56:21.767Z,24.71
2018-05-27T08:58:48.767Z,24.79
2018-05-27T09:01:15.393Z,24.79
2018-05-27T09:03:41.965Z,24.87
2018-05-27T09:06:08.589Z,24.68
2018-05-27T09:08:35.060Z,24.72
2018-05-27T09:11:01.590Z,24.88
2018-05-27T09:13:28.101Z,24.68
2018-05-27T09:15:54.690Z,24.68
2018-05-27T09:18:21.120Z,24.64
2018-05-27T09:20:47.608Z,24.81
2018-05-27T09:23:14.158Z,24.57
2018-05-27T09:28:13.804Z,24.40
2018-05-27T09:30:40.323Z,24.53
2018-05-27T09:33:06.989Z,24.68
2018-05-27T09:35:33.452Z,24.63
2018-05-27T09:38:00.418Z,24.60
2018-05-27T09:40:27.064Z,24.66
2018-05-27T09:42:53.716Z,24.88
2018-05-27T09:45:20.356Z,24.68
2018-05-27T09:47:46.833Z,24.47
2018-05-27T09:50:13.340Z,24.54
2018-05-27T09:52:39.860Z,24.57
2018-05-27T09:55:06.336Z,24.49
2018-05-27T09:57:32.777Z,24.57
2018-05-27T09:59:59.301Z,24.47
2018-05-27T10:02:25.793Z,24.46
2018-05-27T10:04:52.426Z,24.62
2018-05-27T10:07:19.112Z,24.66
2018-05-27T10:09:45.701Z,24.57
2018-05-27T10:12:12.179Z,24.56
2018-05-27T10:14:38.752Z,24.65
2018-05-27T10:17:05.229Z,24.69
2018-05-27T10:19:31.801Z,24.60
2018-05-27T10:21:58.264Z,24.73
2018-05-27T10:24:24.876Z,24.80
2018-05-27T10:26:51.277Z,24.57
2018-05-27T10:29:18.001Z,24.77
2018-05-27T10:31:44.622Z,24.75
2018-05-27T10:34:11.172Z,24.88
2018-05-27T10:36:37.684Z,24.96
2018-05-27T10:39:04.970Z,24.94
2018-05-27T10:41:31.715Z,24.77
2018-05-27T10:43:58.185Z,24.83
2018-05-27T10:46:24.860Z,24.79
2018-05-27T10:48:51.308Z,24.87
2018-05-27T10:51:24.845Z,24.91
2018-05-27T10:53:51.295Z,24.76
2018-05-27T10:56:17.766Z,24.76
2018-05-27T10:58:45.086Z,24.70
2018-05-27T11:01:11.500Z,24.83
2018-05-27T11:03:37.981Z,24.87
2018-05-27T11:06:05.656Z,25.03
2018-05-27T11:08:32.301Z,25.16
2018-05-27T11:10:58.804Z,25.07
2018-05-27T11:13:25.391Z,25.08
2018-05-27T11:15:51.873Z,25.19
2018-05-27T11:18:18.555Z,25.24
2018-05-27T11:20:45.201Z,25.28
2018-05-27T11:23:11.676Z,25.31
2018-05-27T11:25:38.286Z,25.18
2018-05-27T11:28:04.764Z,25.08
2018-05-27T11:30:31.204Z,24.93
2018-05-27T11:32:58.087Z,25.00
2018-05-27T11:35:24.604Z,24.93
2018-05-27T11:37:51.021Z,25.03
2018-05-27T11:40:17.464Z,24.98
2018-05-27T11:42:43.910Z,25.09
2018-05-27T11:45:10.362Z,25.05
2018-05-27T11:47:36.776Z,24.97
2018-05-27T11:50:03.470Z,24.88
2018-05-27T11:52:29.936Z,24.96
2018-05-27T11:54:56.584Z,24.89
2018-05-27T11:57:23.137Z,24.80
2018-05-27T11:59:49.668Z,24.83
2018-05-27T12:02:16.313Z,24.74
2018-05-27T12:04:42.767Z,24.68
2018-05-27T12:07:09.280Z,24.80
2018-05-27T12:09:36.103Z,24.73
2018-05-27T12:12:02.616Z,24.54
2018-05-27T12:14:29.095Z,24.52
2018-05-27T12:16:55.488Z,24.41
2018-05-27T12:19:21.901Z,24.33
2018-05-27T12:21:48.497Z,24.29
2018-05-27T12:24:15.093Z,24.35
2018-05-27T12:26:41.646Z,24.48
2018-05-27T12:29:08.139Z,24.54
2018-05-27T12:31:34.762Z,24.67
2018-05-27T12:34:01.428Z,24.75
2018-05-27T12:36:27.976Z,24.60
2018-05-27T12:38:54.550Z,24.66
2018-05-27T12:41:20.988Z,24.73
2018-05-27T12:43:47.466Z,24.84
2018-05-27T12:46:14.017Z,24.90
2018-05-27T12:48:40.519Z,24.85
2018-05-27T12:51:06.992Z,24.84
2018-05-27T12:53:33.454Z,24.86
2018-05-27T12:55:59.974Z,24.90
2018-05-27T12:58:26.472Z,24.80
2018-05-27T13:00:53.147Z,24.65
2018-05-27T13:03:19.679Z,24.65
2018-05-27T13:05:46.257Z,24.70
2018-05-27T13:08:12.884Z,24.75
2018-05-27T13:10:39.398Z,24.91
2018-05-27T13:13:06.228Z,24.93
2018-05-27T13:15:32.788Z,24.85
2018-05-27T13:17:59.593Z,24.82
2018-05-27T13:20:26.168Z,24.78
2018-05-27T13:22:52.554Z,24.81
2018-05-27T13:25:19.037Z,24.69
2018-05-27T13:27:45.476Z,24.86
2018-05-27T13:30:12.035Z,24.97
2018-05-27T13:32:38.566Z,25.00
2018-05-27T13:35:05.034Z,24.89
2018-05-27T13:37:31.694Z,24.93
2018-05-27T13:39:58.364Z,24.97
2018-05-27T13:42:24.895Z,24.91
2018-05-27T13:44:51.594Z,24.77
2018-05-27T13:47:18.019Z,24.90
2018-05-27T13:49:44.489Z,24.82
2018-05-27T13:52:11.088Z,24.82
2018-05-27T13:54:37.640Z,24.75
2018-05-27T13:57:04.191Z,24.84
2018-05-27T13:59:30.717Z,24.99
2018-05-27T14:01:57.249Z,25.00
2018-05-27T14:04:24.382Z,25.01
2018-05-27T14:06:50.920Z,24.86
2018-05-27T14:09:17.429Z,24.95
2018-05-27T14:11:45.013Z,25.02
2018-05-27T14:14:11.697Z,25.02
2018-05-27T14:16:39.098Z,24.93
2018-05-27T14:19:06.751Z,25.12
2018-05-27T14:21:42.429Z,25.08
2018-05-27T14:24:26.656Z,25.20
2018-05-27T14:26:59.126Z,25.12
2018-05-27T14:29:28.232Z,25.16
2018-05-27T14:38:16.549Z,25.28
2018-05-27T14:43:39.609Z,25.55
2018-05-27T14:46:06.214Z,25.49
2018-05-27T14:48:33.182Z,25.60
2018-05-27T14:50:59.886Z,25.63
2018-05-27T14:53:26.373Z,25.51
2018-05-27T14:56:00.329Z,25.54
2018-05-27T14:58:26.837Z,25.59
2018-05-27T15:00:53.254Z,25.45
2018-05-27T15:03:19.728Z,25.50
2018-05-27T15:05:46.409Z,25.34
2018-05-27T15:08:12.978Z,25.39
2018-05-27T15:10:39.648Z,25.23
2018-05-27T15:13:06.176Z,25.13
2018-05-27T15:15:32.761Z,25.15
2018-05-27T15:17:59.241Z,25.19
2018-05-27T15:20:25.759Z,25.18
2018-05-27T15:22:52.366Z,25.11
2018-05-27T15:25:18.837Z,25.10
2018-05-27T15:27:45.245Z,25.11
2018-05-27T15:30:11.735Z,25.12
2018-05-27T15:32:38.365Z,25.10
2018-05-27T15:35:04.946Z,25.04
2018-05-27T15:37:31.528Z,25.02
2018-05-27T15:39:58.109Z,25.03
2018-05-27T15:42:24.664Z,25.06
2018-05-27T15:44:51.349Z,24.97
2018-05-27T15:47:18.005Z,24.90
2018-05-27T15:49:44.554Z,24.75
2018-05-27T15:52:11.266Z,24.73
2018-05-27T15:54:37.889Z,24.68
2018-05-27T15:57:04.522Z,24.63
2018-05-27T15:59:32.053Z,24.64
2018-05-27T16:01:58.529Z,24.67
2018-05-27T16:04:24.973Z,24.77
2018-05-27T16:06:51.562Z,24.74
2018-05-27T16:09:18.154Z,24.68
2018-05-27T16:11:44.870Z,24.50
2018-05-27T16:14:11.348Z,24.44
2018-05-27T16:16:37.992Z,24.39
2018-05-27T16:19:04.541Z,24.37
2018-05-27T16:21:30.990Z,24.29
2018-05-27T16:23:57.540Z,24.30
2018-05-27T16:26:24.004Z,24.31
2018-05-27T16:28:51.197Z,24.36
2018-05-27T16:31:18.012Z,24.36
2018-05-27T16:33:44.741Z,24.30
2018-05-27T16:36:16.069Z,24.24
2018-05-27T16:38:42.817Z,24.27
2018-05-27T16:41:09.419Z,24.19
2018-05-27T16:43:36.009Z,24.01
2018-05-27T16:46:02.804Z,23.91
2018-05-27T16:48:32.405Z,23.90
2018-05-27T16:51:05.025Z,23.78
2018-05-27T16:53:44.362Z,23.71
2018-05-27T16:56:16.090Z,23.63
2018-05-27T16:58:46.526Z,23.66
2018-05-27T17:01:21.164Z,23.75
2018-05-27T17:03:55.671Z,23.79
2018-05-27T17:06:25.475Z,23.76
2018-05-27T17:08:54.832Z,23.75
2018-05-27T17:11:24.481Z,23.68
2018-05-27T17:13:59.074Z,23.61
2018-05-27T17:16:30.967Z,23.60
2018-05-27T17:19:12.774Z,23.47
2018-05-27T17:24:28.043Z,23.44
2018-05-27T17:26:56.727Z,23.47
2018-05-27T17:29:25.279Z,23.54
2018-05-27T17:31:51.684Z,23.53
2018-05-27T17:34:18.616Z,23.46
2018-05-27T17:39:19.509Z,23.45
2018-05-27T17:41:46.216Z,23.37
2018-05-27T17:44:13.895Z,23.30
2018-05-27T17:46:40.547Z,23.28
2018-05-27T17:49:07.187Z,23.10
2018-05-27T17:54:43.801Z,23.04
2018-05-27T17:57:14.879Z,22.92
2018-05-27T17:59:41.774Z,22.85
2018-05-27T18:02:08.785Z,22.78
2018-05-27T18:04:35.549Z,22.87
2018-05-27T18:07:03.623Z,22.81
2018-05-27T18:09:30.194Z,22.89
2018-05-27T18:11:56.880Z,22.74
2018-05-27T18:14:23.522Z,22.62
2018-05-27T18:16:50.195Z,22.59
2018-05-27T18:19:16.689Z,22.56
2018-05-27T18:21:43.224Z,22.59
2018-05-27T18:24:09.822Z,22.68
2018-05-27T18:26:36.496Z,22.63
2018-05-27T18:29:03.106Z,22.55
2018-05-27T18:31:29.853Z,22.67
2018-05-27T18:33:56.515Z,22.72
2018-05-27T18:36:23.094Z,22.90
2018-05-27T18:38:49.762Z,23.08
2018-05-27T18:41:16.493Z,23.23
2018-05-27T18:43:43.035Z,23.21
2018-05-27T18:46:10.129Z,23.16
2018-05-27T18:48:36.694Z,23.23
2018-05-27T18:51:03.488Z,23.34
2018-05-27T18:53:30.816Z,23.35
2018-05-27T18:55:57.325Z,23.34
2018-05-27T18:58:23.959Z,23.49
2018-05-27T19:00:50.624Z,23.60
2018-05-27T19:03:18.491Z,23.56
2018-05-27T19:05:45.005Z,23.32
2018-05-27T19:08:11.834Z,23.25
2018-05-27T19:10:38.537Z,23.20
2018-05-27T19:13:05.026Z,23.15
2018-05-27T19:15:31.745Z,23.08
2018-05-27T19:17:58.185Z,23.00
2018-05-27T19:20:24.718Z,22.87
2018-05-27T19:22:51.152Z,22.78
2018-05-27T19:25:17.705Z,22.79
2018-05-27T19:27:45.062Z,22.66
2018-05-27T19:30:11.723Z,22.71
2018-05-27T19:32:38.220Z,22.78
2018-05-27T19:35:04.854Z,22.64
2018-05-27T19:37:31.512Z,22.69
2018-05-27T19:39:58.092Z,22.72
2018-05-27T19:42:24.739Z,22.71
2018-05-27T19:44:51.332Z,22.65
2018-05-27T19:47:18.021Z,22.86
2018-05-27T19:49:44.679Z,22.91
2018-05-27T19:52:11.417Z,23.02
2018-05-27T19:54:38.256Z,23.15
2018-05-27T19:57:04.782Z,23.16
2018-05-27T19:59:31.225Z,23.20
2018-05-27T20:01:57.718Z,23.11
2018-05-27T20:04:24.113Z,23.16
2018-05-27T20:06:50.704Z,23.08
2018-05-27T20:09:17.201Z,23.07
2018-05-27T20:11:43.820Z,23.00
2018-05-27T20:14:10.285Z,22.91
2018-05-27T20:16:36.922Z,22.91
2018-05-27T20:19:03.468Z,22.86
2018-05-27T20:21:30.267Z,22.80
2018-05-27T20:23:56.947Z,22.83
2018-05-27T20:26:23.502Z,22.76
2018-05-27T20:28:49.963Z,22.75
2018-05-27T20:31:16.453Z,22.67
2018-05-27T20:33:43.068Z,22.59
2018-05-27T20:36:09.631Z,22.58
2018-05-27T20:38:36.176Z,22.53
2018-05-27T20:41:02.814Z,22.57
2018-05-27T20:43:29.428Z,22.52
2018-05-27T20:45:55.985Z,22.55
2018-05-27T20:48:22.409Z,22.52
2018-05-27T20:50:51.445Z,22.46
2018-05-27T20:53:25.492Z,22.45
2018-05-27T20:55:51.972Z,22.48
2018-05-27T20:58:18.637Z,22.51
2018-05-27T21:00:45.719Z,22.75
2018-05-27T21:03:12.574Z,22.97
2018-05-27T21:05:40.184Z,23.09
2018-05-27T21:08:06.892Z,23.16
2018-05-27T21:10:33.837Z,23.19
2018-05-27T21:13:00.661Z,23.17
2018-05-27T21:15:27.590Z,23.17
2018-05-27T21:17:54.198Z,23.11
2018-05-27T21:20:21.497Z,22.92
2018-05-27T21:22:49.164Z,22.67
2018-05-27T21:25:15.621Z,22.44
2018-05-27T21:27:42.070Z,22.33
2018-05-27T21:30:08.731Z,22.48
2018-05-27T21:32:35.533Z,22.74
2018-05-27T21:35:02.037Z,22.94
2018-05-27T21:37:28.621Z,22.93
2018-05-27T21:39:55.189Z,22.87
2018-05-27T21:42:21.662Z,22.86
2018-05-27T21:44:48.417Z,22.71
2018-05-27T21:47:14.852Z,22.62
2018-05-27T21:49:41.480Z,22.64
2018-05-27T21:52:08.006Z,22.72
2018-05-27T21:54:34.455Z,22.57
2018-05-27T21:57:00.863Z,22.53
2018-05-27T21:59:27.420Z,22.47
2018-05-27T22:01:53.833Z,22.58
2018-05-27T22:04:20.489Z,22.55
2018-05-27T22:06:47.054Z,22.35
2018-05-27T22:09:13.465Z,22.06
2018-05-27T22:11:39.887Z,21.86
2018-05-27T22:14:06.333Z,21.69
2018-05-27T22:16:32.948Z,21.65
2018-05-27T22:18:59.644Z,21.50
2018-05-27T22:21:26.296Z,21.34
2018-05-27T22:23:52.769Z,21.28
2018-05-27T22:26:19.240Z,21.20
2018-05-27T22:28:45.924Z,21.13
2018-05-27T22:31:12.485Z,21.04
2018-05-27T22:33:39.053Z,20.98
2018-05-27T22:36:05.641Z,20.95
2018-05-27T22:38:32.037Z,20.89
2018-05-27T22:40:58.692Z,20.88
2018-05-27T22:43:25.097Z,20.87
2018-05-27T22:45:51.629Z,20.80
2018-05-27T22:48:18.093Z,20.72
2018-05-27T22:50:44.604Z,20.68
2018-05-27T22:53:11.180Z,20.61
2018-05-27T22:55:37.577Z,20.62
2018-05-27T22:58:04.128Z,20.59
2018-05-27T23:00:30.657Z,20.55
2018-05-27T23:02:57.338Z,20.49
2018-05-27T23:05:23.898Z,20.47
2018-05-27T23:07:57.473Z,20.42
2018-05-27T23:10:23.932Z,20.39
2018-05-27T23:12:50.422Z,20.39
2018-05-27T23:15:17.005Z,20.37
2018-05-27T23:17:43.548Z,20.33
2018-05-27T23:20:10.117Z,20.29
2018-05-27T23:22:36.686Z,20.19
2018-05-27T23:25:03.305Z,20.20
2018-05-27T23:27:29.920Z,20.18
2018-05-27T23:29:56.580Z,20.15
2018-05-27T23:32:23.185Z,20.09
2018-05-27T23:34:49.909Z,20.05
2018-05-27T23:37:16.528Z,20.02
2018-05-27T23:39:43.116Z,19.96
2018-05-27T23:42:09.732Z,19.93
2018-05-27T23:44:36.405Z,19.95
2018-05-27T23:47:03.004Z,19.86
2018-05-27T23:49:29.477Z,19.86
2018-05-27T23:51:55.947Z,19.85
2018-05-27T23:54:22.626Z,19.79
2018-05-27T23:56:49.152Z,19.85
2018-05-27T23:59:15.668Z,19.85
